sensor_id;sensor_type;location;lat;lon;timestamp;P1;durP1;ratioP1;P2;durP2;ratioP2
54145;SDS011;65909;49.422;7.738;2023-08-30T00:00:53;3.70;;;2.33;;
54145;SDS011;65909;49.422;7.738;2023-08-30T00:03:19;3.00;;;2.28;;
54145;SDS011;65909;49.422;7.738;2023-08-30T00:05:44;2.97;;;2.30;;
54145;SDS011;65909;49.422;7.738;2023-08-30T00:08:09;2.58;;;1.77;;
54145;SDS011;65909;49.422;7.738;2023-08-30T00:10:35;2.72;;;2.05;;
54145;SDS011;65909;49.422;7.738;2023-08-30T00:13:00;2.67;;;1.65;;
54145;SDS011;65909;49.422;7.738;2023-08-30T00:15:26;3.05;;;2.33;;
54145;SDS011;65909;49.422;7.738;2023-08-30T00:17:51;3.13;;;2.50;;
54145;SDS011;65909;49.422;7.738;2023-08-30T00:20:17;2.30;;;2.10;;
54145;SDS011;65909;49.422;7.738;2023-08-30T00:22:43;3.63;;;2.20;;
54145;SDS011;65909;49.422;7.738;2023-08-30T00:25:08;2.83;;;2.05;;
54145;SDS011;65909;49.422;7.738;2023-08-30T00:27:34;2.40;;;1.75;;
54145;SDS011;65909;49.422;7.738;2023-08-30T00:29:59;2.13;;;1.90;;
54145;SDS011;65909;49.422;7.738;2023-08-30T00:32:24;3.95;;;2.35;;
54145;SDS011;65909;49.422;7.738;2023-08-30T00:34:50;2.72;;;2.30;;
54145;SDS011;65909;49.422;7.738;2023-08-30T00:37:16;2.95;;;2.17;;
54145;SDS011;65909;49.422;7.738;2023-08-30T00:39:41;3.60;;;2.80;;
54145;SDS011;65909;49.422;7.738;2023-08-30T00:42:07;4.28;;;2.00;;
54145;SDS011;65909;49.422;7.738;2023-08-30T00:44:35;3.03;;;2.40;;
54145;SDS011;65909;49.422;7.738;2023-08-30T00:47:01;3.88;;;2.63;;
54145;SDS011;65909;49.422;7.738;2023-08-30T00:49:28;3.63;;;2.45;;
54145;SDS011;65909;49.422;7.738;2023-08-30T00:51:57;3.35;;;2.45;;
54145;SDS011;65909;49.422;7.738;2023-08-30T00:54:26;7.93;;;2.30;;
54145;SDS011;65909;49.422;7.738;2023-08-30T00:56:51;3.10;;;2.28;;
54145;SDS011;65909;49.422;7.738;2023-08-30T00:59:17;3.80;;;2.08;;
54145;SDS011;65909;49.422;7.738;2023-08-30T01:01:43;2.85;;;2.28;;
54145;SDS011;65909;49.422;7.738;2023-08-30T01:04:09;3.65;;;2.30;;
54145;SDS011;65909;49.422;7.738;2023-08-30T01:06:34;2.30;;;2.08;;
54145;SDS011;65909;49.422;7.738;2023-08-30T01:09:03;2.72;;;2.10;;
54145;SDS011;65909;49.422;7.738;2023-08-30T01:14:20;4.15;;;2.60;;
54145;SDS011;65909;49.422;7.738;2023-08-30T01:16:49;5.40;;;2.20;;
54145;SDS011;65909;49.422;7.738;2023-08-30T01:24:53;3.05;;;2.20;;
54145;SDS011;65909;49.422;7.738;2023-08-30T01:27:20;3.05;;;2.38;;
54145;SDS011;65909;49.422;7.738;2023-08-30T01:29:47;3.97;;;2.50;;
54145;SDS011;65909;49.422;7.738;2023-08-30T01:32:14;3.97;;;2.45;;
54145;SDS011;65909;49.422;7.738;2023-08-30T01:34:41;4.53;;;2.55;;
54145;SDS011;65909;49.422;7.738;2023-08-30T01:37:10;2.50;;;2.10;;
54145;SDS011;65909;49.422;7.738;2023-08-30T01:39:38;2.88;;;2.55;;
54145;SDS011;65909;49.422;7.738;2023-08-30T01:42:06;3.00;;;2.15;;
54145;SDS011;65909;49.422;7.738;2023-08-30T01:44:32;4.22;;;2.83;;
54145;SDS011;65909;49.422;7.738;2023-08-30T01:46:58;2.83;;;2.47;;
54145;SDS011;65909;49.422;7.738;2023-08-30T01:49:25;4.75;;;2.70;;
54145;SDS011;65909;49.422;7.738;2023-08-30T01:51:51;5.55;;;2.60;;
54145;SDS011;65909;49.422;7.738;2023-08-30T01:54:18;3.28;;;2.58;;
54145;SDS011;65909;49.422;7.738;2023-08-30T01:56:44;3.55;;;2.88;;
54145;SDS011;65909;49.422;7.738;2023-08-30T01:59:11;2.92;;;2.42;;
54145;SDS011;65909;49.422;7.738;2023-08-30T02:01:36;2.80;;;2.55;;
54145;SDS011;65909;49.422;7.738;2023-08-30T02:04:02;3.60;;;3.00;;
54145;SDS011;65909;49.422;7.738;2023-08-30T02:06:30;4.57;;;3.20;;
54145;SDS011;65909;49.422;7.738;2023-08-30T02:09:14;3.50;;;2.78;;
54145;SDS011;65909;49.422;7.738;2023-08-30T02:11:44;3.40;;;2.95;;
54145;SDS011;65909;49.422;7.738;2023-08-30T02:14:11;3.30;;;3.00;;
54145;SDS011;65909;49.422;7.738;2023-08-30T02:16:42;5.13;;;3.20;;
54145;SDS011;65909;49.422;7.738;2023-08-30T02:19:08;4.35;;;2.80;;
54145;SDS011;65909;49.422;7.738;2023-08-30T02:21:33;4.85;;;3.05;;
54145;SDS011;65909;49.422;7.738;2023-08-30T02:23:59;3.75;;;3.10;;
54145;SDS011;65909;49.422;7.738;2023-08-30T02:26:24;4.85;;;3.20;;
54145;SDS011;65909;49.422;7.738;2023-08-30T02:28:49;5.90;;;3.00;;
54145;SDS011;65909;49.422;7.738;2023-08-30T02:31:15;5.22;;;3.30;;
54145;SDS011;65909;49.422;7.738;2023-08-30T02:33:40;3.53;;;2.95;;
54145;SDS011;65909;49.422;7.738;2023-08-30T02:36:05;5.13;;;2.85;;
54145;SDS011;65909;49.422;7.738;2023-08-30T02:38:31;3.78;;;3.33;;
54145;SDS011;65909;49.422;7.738;2023-08-30T02:40:56;5.10;;;2.85;;
54145;SDS011;65909;49.422;7.738;2023-08-30T02:43:22;3.72;;;3.22;;
54145;SDS011;65909;49.422;7.738;2023-08-30T02:45:47;5.70;;;3.15;;
54145;SDS011;65909;49.422;7.738;2023-08-30T02:48:13;7.05;;;3.17;;
54145;SDS011;65909;49.422;7.738;2023-08-30T02:50:39;3.58;;;3.25;;
54145;SDS011;65909;49.422;7.738;2023-08-30T02:53:04;6.18;;;2.60;;
54145;SDS011;65909;49.422;7.738;2023-08-30T02:55:33;3.00;;;2.42;;
54145;SDS011;65909;49.422;7.738;2023-08-30T02:57:58;4.13;;;2.85;;
54145;SDS011;65909;49.422;7.738;2023-08-30T03:00:24;6.15;;;2.40;;
54145;SDS011;65909;49.422;7.738;2023-08-30T03:02:49;3.17;;;2.58;;
54145;SDS011;65909;49.422;7.738;2023-08-30T03:05:15;2.80;;;2.30;;
54145;SDS011;65909;49.422;7.738;2023-08-30T03:07:40;3.55;;;2.60;;
54145;SDS011;65909;49.422;7.738;2023-08-30T03:10:06;2.92;;;2.50;;
54145;SDS011;65909;49.422;7.738;2023-08-30T03:12:31;3.83;;;3.40;;
54145;SDS011;65909;49.422;7.738;2023-08-30T03:14:57;4.22;;;2.90;;
54145;SDS011;65909;49.422;7.738;2023-08-30T03:17:23;4.63;;;3.25;;
54145;SDS011;65909;49.422;7.738;2023-08-30T03:19:51;4.57;;;3.30;;
54145;SDS011;65909;49.422;7.738;2023-08-30T03:22:17;3.40;;;2.92;;
54145;SDS011;65909;49.422;7.738;2023-08-30T03:24:43;5.68;;;3.58;;
54145;SDS011;65909;49.422;7.738;2023-08-30T03:27:08;5.95;;;3.20;;
54145;SDS011;65909;49.422;7.738;2023-08-30T03:29:33;6.68;;;3.03;;
54145;SDS011;65909;49.422;7.738;2023-08-30T03:31:59;5.85;;;3.53;;
54145;SDS011;65909;49.422;7.738;2023-08-30T03:34:24;5.15;;;3.58;;
54145;SDS011;65909;49.422;7.738;2023-08-30T03:36:49;4.47;;;3.38;;
54145;SDS011;65909;49.422;7.738;2023-08-30T03:39:19;4.28;;;3.28;;
54145;SDS011;65909;49.422;7.738;2023-08-30T03:41:45;6.90;;;3.58;;
54145;SDS011;65909;49.422;7.738;2023-08-30T03:44:10;4.68;;;3.33;;
54145;SDS011;65909;49.422;7.738;2023-08-30T03:46:36;4.35;;;3.28;;
54145;SDS011;65909;49.422;7.738;2023-08-30T03:49:02;4.15;;;2.97;;
54145;SDS011;65909;49.422;7.738;2023-08-30T03:51:28;4.20;;;3.58;;
54145;SDS011;65909;49.422;7.738;2023-08-30T03:53:54;4.45;;;3.42;;
54145;SDS011;65909;49.422;7.738;2023-08-30T03:56:21;5.63;;;3.63;;
54145;SDS011;65909;49.422;7.738;2023-08-30T03:58:46;5.05;;;3.20;;
54145;SDS011;65909;49.422;7.738;2023-08-30T04:01:12;5.00;;;3.67;;
54145;SDS011;65909;49.422;7.738;2023-08-30T04:03:37;8.02;;;3.70;;
54145;SDS011;65909;49.422;7.738;2023-08-30T04:06:02;6.88;;;3.38;;
54145;SDS011;65909;49.422;7.738;2023-08-30T04:08:28;6.43;;;3.88;;
54145;SDS011;65909;49.422;7.738;2023-08-30T04:10:53;5.40;;;3.47;;
54145;SDS011;65909;49.422;7.738;2023-08-30T04:13:19;5.10;;;3.83;;
54145;SDS011;65909;49.422;7.738;2023-08-30T04:15:44;4.60;;;3.53;;
54145;SDS011;65909;49.422;7.738;2023-08-30T04:18:09;6.57;;;4.28;;
54145;SDS011;65909;49.422;7.738;2023-08-30T04:20:35;5.03;;;3.65;;
54145;SDS011;65909;49.422;7.738;2023-08-30T04:23:00;6.28;;;3.83;;
54145;SDS011;65909;49.422;7.738;2023-08-30T04:25:29;8.15;;;4.00;;
54145;SDS011;65909;49.422;7.738;2023-08-30T04:27:55;6.10;;;3.60;;
54145;SDS011;65909;49.422;7.738;2023-08-30T04:30:21;4.80;;;3.40;;
54145;SDS011;65909;49.422;7.738;2023-08-30T04:32:46;4.07;;;3.60;;
54145;SDS011;65909;49.422;7.738;2023-08-30T04:35:11;4.20;;;3.67;;
54145;SDS011;65909;49.422;7.738;2023-08-30T04:37:37;8.52;;;3.92;;
54145;SDS011;65909;49.422;7.738;2023-08-30T04:40:05;4.15;;;3.75;;
54145;SDS011;65909;49.422;7.738;2023-08-30T04:42:32;5.03;;;3.67;;
54145;SDS011;65909;49.422;7.738;2023-08-30T04:44:57;4.10;;;3.25;;
54145;SDS011;65909;49.422;7.738;2023-08-30T04:47:25;5.53;;;3.05;;
54145;SDS011;65909;49.422;7.738;2023-08-30T04:49:51;6.40;;;4.00;;
54145;SDS011;65909;49.422;7.738;2023-08-30T04:52:17;6.43;;;4.28;;
54145;SDS011;65909;49.422;7.738;2023-08-30T04:54:42;6.03;;;3.50;;
54145;SDS011;65909;49.422;7.738;2023-08-30T04:57:07;6.82;;;4.05;;
54145;SDS011;65909;49.422;7.738;2023-08-30T04:59:33;6.18;;;3.80;;
54145;SDS011;65909;49.422;7.738;2023-08-30T05:01:58;5.38;;;3.70;;
54145;SDS011;65909;49.422;7.738;2023-08-30T05:04:24;5.78;;;3.42;;
54145;SDS011;65909;49.422;7.738;2023-08-30T05:06:49;7.22;;;3.60;;
54145;SDS011;65909;49.422;7.738;2023-08-30T05:09:15;5.43;;;3.50;;
54145;SDS011;65909;49.422;7.738;2023-08-30T05:11:40;4.78;;;3.45;;
54145;SDS011;65909;49.422;7.738;2023-08-30T05:14:05;5.20;;;3.80;;
54145;SDS011;65909;49.422;7.738;2023-08-30T05:16:31;3.67;;;3.20;;
54145;SDS011;65909;49.422;7.738;2023-08-30T05:18:57;3.78;;;3.40;;
54145;SDS011;65909;49.422;7.738;2023-08-30T05:21:22;4.55;;;3.92;;
54145;SDS011;65909;49.422;7.738;2023-08-30T05:23:48;4.90;;;4.03;;
54145;SDS011;65909;49.422;7.738;2023-08-30T05:26:13;5.28;;;4.30;;
54145;SDS011;65909;49.422;7.738;2023-08-30T05:28:38;6.20;;;3.83;;
54145;SDS011;65909;49.422;7.738;2023-08-30T05:31:04;5.85;;;3.70;;
54145;SDS011;65909;49.422;7.738;2023-08-30T05:33:29;5.15;;;3.63;;
54145;SDS011;65909;49.422;7.738;2023-08-30T05:35:55;5.93;;;3.92;;
54145;SDS011;65909;49.422;7.738;2023-08-30T05:38:20;6.20;;;4.32;;
54145;SDS011;65909;49.422;7.738;2023-08-30T05:40:46;5.80;;;4.18;;
54145;SDS011;65909;49.422;7.738;2023-08-30T05:43:11;6.88;;;5.03;;
54145;SDS011;65909;49.422;7.738;2023-08-30T05:45:37;10.00;;;5.85;;
54145;SDS011;65909;49.422;7.738;2023-08-30T05:48:02;8.70;;;4.72;;
54145;SDS011;65909;49.422;7.738;2023-08-30T05:50:28;6.32;;;4.32;;
54145;SDS011;65909;49.422;7.738;2023-08-30T05:52:53;7.28;;;4.60;;
54145;SDS011;65909;49.422;7.738;2023-08-30T05:55:19;6.70;;;4.85;;
54145;SDS011;65909;49.422;7.738;2023-08-30T05:57:44;6.65;;;4.43;;
54145;SDS011;65909;49.422;7.738;2023-08-30T06:00:10;5.90;;;4.75;;
54145;SDS011;65909;49.422;7.738;2023-08-30T06:02:36;6.30;;;4.78;;
54145;SDS011;65909;49.422;7.738;2023-08-30T06:05:01;6.57;;;4.65;;
54145;SDS011;65909;49.422;7.738;2023-08-30T06:07:27;5.30;;;4.65;;
54145;SDS011;65909;49.422;7.738;2023-08-30T06:09:53;6.88;;;4.80;;
54145;SDS011;65909;49.422;7.738;2023-08-30T06:12:18;6.32;;;4.95;;
54145;SDS011;65909;49.422;7.738;2023-08-30T06:14:43;7.25;;;4.68;;
54145;SDS011;65909;49.422;7.738;2023-08-30T06:17:15;6.22;;;4.80;;
54145;SDS011;65909;49.422;7.738;2023-08-30T06:19:40;6.30;;;5.38;;
54145;SDS011;65909;49.422;7.738;2023-08-30T06:22:05;6.97;;;5.28;;
54145;SDS011;65909;49.422;7.738;2023-08-30T06:24:31;6.72;;;5.45;;
54145;SDS011;65909;49.422;7.738;2023-08-30T06:26:56;8.32;;;5.78;;
54145;SDS011;65909;49.422;7.738;2023-08-30T06:29:21;7.15;;;5.30;;
54145;SDS011;65909;49.422;7.738;2023-08-30T06:31:47;6.53;;;5.00;;
54145;SDS011;65909;49.422;7.738;2023-08-30T06:34:12;7.55;;;5.40;;
54145;SDS011;65909;49.422;7.738;2023-08-30T06:36:37;7.22;;;5.53;;
54145;SDS011;65909;49.422;7.738;2023-08-30T06:39:03;7.00;;;5.40;;
54145;SDS011;65909;49.422;7.738;2023-08-30T06:41:28;8.50;;;4.80;;
54145;SDS011;65909;49.422;7.738;2023-08-30T06:43:54;6.75;;;5.32;;
54145;SDS011;65909;49.422;7.738;2023-08-30T06:46:19;6.18;;;5.03;;
54145;SDS011;65909;49.422;7.738;2023-08-30T06:48:45;7.35;;;4.90;;
54145;SDS011;65909;49.422;7.738;2023-08-30T06:51:10;8.00;;;5.30;;
54145;SDS011;65909;49.422;7.738;2023-08-30T06:53:35;6.53;;;5.43;;
54145;SDS011;65909;49.422;7.738;2023-08-30T06:56:01;8.50;;;6.07;;
54145;SDS011;65909;49.422;7.738;2023-08-30T06:58:27;8.57;;;5.80;;
54145;SDS011;65909;49.422;7.738;2023-08-30T07:00:52;6.63;;;5.45;;
54145;SDS011;65909;49.422;7.738;2023-08-30T07:03:18;7.15;;;5.50;;
54145;SDS011;65909;49.422;7.738;2023-08-30T07:05:43;6.70;;;4.97;;
54145;SDS011;65909;49.422;7.738;2023-08-30T07:08:09;6.53;;;4.78;;
54145;SDS011;65909;49.422;7.738;2023-08-30T07:10:34;8.27;;;5.30;;
54145;SDS011;65909;49.422;7.738;2023-08-30T07:13:00;7.47;;;5.70;;
54145;SDS011;65909;49.422;7.738;2023-08-30T07:15:25;7.63;;;5.75;;
54145;SDS011;65909;49.422;7.738;2023-08-30T07:17:51;8.55;;;5.63;;
54145;SDS011;65909;49.422;7.738;2023-08-30T07:20:16;8.10;;;5.45;;
54145;SDS011;65909;49.422;7.738;2023-08-30T07:22:42;12.63;;;6.57;;
54145;SDS011;65909;49.422;7.738;2023-08-30T07:25:07;8.60;;;5.57;;
54145;SDS011;65909;49.422;7.738;2023-08-30T07:27:35;6.93;;;5.55;;
54145;SDS011;65909;49.422;7.738;2023-08-30T07:30:00;10.73;;;6.13;;
54145;SDS011;65909;49.422;7.738;2023-08-30T07:32:26;7.53;;;5.70;;
54145;SDS011;65909;49.422;7.738;2023-08-30T07:34:52;7.53;;;6.28;;
54145;SDS011;65909;49.422;7.738;2023-08-30T07:37:18;9.65;;;6.30;;
54145;SDS011;65909;49.422;7.738;2023-08-30T07:39:45;9.52;;;6.50;;
54145;SDS011;65909;49.422;7.738;2023-08-30T07:42:10;14.25;;;7.57;;
54145;SDS011;65909;49.422;7.738;2023-08-30T07:44:36;10.05;;;6.30;;
54145;SDS011;65909;49.422;7.738;2023-08-30T07:47:01;12.38;;;7.72;;
54145;SDS011;65909;49.422;7.738;2023-08-30T07:49:26;10.55;;;7.93;;
54145;SDS011;65909;49.422;7.738;2023-08-30T07:51:52;9.60;;;7.95;;
54145;SDS011;65909;49.422;7.738;2023-08-30T07:54:17;12.32;;;10.02;;
54145;SDS011;65909;49.422;7.738;2023-08-30T07:56:42;17.52;;;11.18;;
54145;SDS011;65909;49.422;7.738;2023-08-30T07:59:08;14.45;;;10.93;;
54145;SDS011;65909;49.422;7.738;2023-08-30T08:01:33;16.08;;;10.80;;
54145;SDS011;65909;49.422;7.738;2023-08-30T08:03:58;12.15;;;10.15;;
54145;SDS011;65909;49.422;7.738;2023-08-30T08:06:24;14.32;;;10.00;;
54145;SDS011;65909;49.422;7.738;2023-08-30T08:08:49;13.30;;;9.38;;
54145;SDS011;65909;49.422;7.738;2023-08-30T08:11:14;13.25;;;10.75;;
54145;SDS011;65909;49.422;7.738;2023-08-30T08:13:40;11.70;;;8.85;;
54145;SDS011;65909;49.422;7.738;2023-08-30T08:16:05;12.85;;;9.52;;
54145;SDS011;65909;49.422;7.738;2023-08-30T08:18:32;12.80;;;9.27;;
54145;SDS011;65909;49.422;7.738;2023-08-30T08:20:57;12.00;;;9.25;;
54145;SDS011;65909;49.422;7.738;2023-08-30T08:23:22;13.77;;;8.93;;
54145;SDS011;65909;49.422;7.738;2023-08-30T08:25:48;10.93;;;8.63;;
54145;SDS011;65909;49.422;7.738;2023-08-30T08:28:13;14.73;;;8.80;;
54145;SDS011;65909;49.422;7.738;2023-08-30T08:30:39;10.43;;;8.57;;
54145;SDS011;65909;49.422;7.738;2023-08-30T08:33:04;16.92;;;10.32;;
54145;SDS011;65909;49.422;7.738;2023-08-30T08:35:29;11.15;;;8.98;;
54145;SDS011;65909;49.422;7.738;2023-08-30T08:37:55;13.45;;;8.90;;
54145;SDS011;65909;49.422;7.738;2023-08-30T08:40:20;12.48;;;8.63;;
54145;SDS011;65909;49.422;7.738;2023-08-30T08:42:45;9.05;;;8.02;;
54145;SDS011;65909;49.422;7.738;2023-08-30T08:45:15;9.77;;;7.35;;
54145;SDS011;65909;49.422;7.738;2023-08-30T08:47:41;8.55;;;7.68;;
54145;SDS011;65909;49.422;7.738;2023-08-30T08:50:09;9.15;;;7.55;;
54145;SDS011;65909;49.422;7.738;2023-08-30T08:52:35;10.88;;;7.03;;
54145;SDS011;65909;49.422;7.738;2023-08-30T08:55:00;10.00;;;8.38;;
54145;SDS011;65909;49.422;7.738;2023-08-30T08:57:26;7.50;;;6.68;;
54145;SDS011;65909;49.422;7.738;2023-08-30T08:59:56;11.65;;;7.78;;
54145;SDS011;65909;49.422;7.738;2023-08-30T09:02:22;6.90;;;5.55;;
54145;SDS011;65909;49.422;7.738;2023-08-30T09:04:48;8.48;;;7.38;;
54145;SDS011;65909;49.422;7.738;2023-08-30T09:07:14;6.85;;;6.15;;
54145;SDS011;65909;49.422;7.738;2023-08-30T09:09:39;7.75;;;6.38;;
54145;SDS011;65909;49.422;7.738;2023-08-30T09:12:05;9.10;;;5.65;;
54145;SDS011;65909;49.422;7.738;2023-08-30T09:14:31;6.43;;;5.72;;
54145;SDS011;65909;49.422;7.738;2023-08-30T09:17:00;8.13;;;5.97;;
54145;SDS011;65909;49.422;7.738;2023-08-30T09:19:27;8.93;;;5.10;;
54145;SDS011;65909;49.422;7.738;2023-08-30T09:21:53;7.13;;;6.05;;
54145;SDS011;65909;49.422;7.738;2023-08-30T09:24:19;5.88;;;5.00;;
54145;SDS011;65909;49.422;7.738;2023-08-30T09:26:48;6.70;;;5.63;;
54145;SDS011;65909;49.422;7.738;2023-08-30T09:29:16;7.15;;;5.63;;
54145;SDS011;65909;49.422;7.738;2023-08-30T09:31:42;7.07;;;5.35;;
54145;SDS011;65909;49.422;7.738;2023-08-30T09:34:08;6.47;;;5.18;;
54145;SDS011;65909;49.422;7.738;2023-08-30T09:36:37;8.70;;;5.60;;
54145;SDS011;65909;49.422;7.738;2023-08-30T09:39:10;5.35;;;4.75;;
54145;SDS011;65909;49.422;7.738;2023-08-30T09:41:37;7.80;;;4.97;;
54145;SDS011;65909;49.422;7.738;2023-08-30T09:44:06;8.48;;;5.03;;
54145;SDS011;65909;49.422;7.738;2023-08-30T09:46:39;6.18;;;4.65;;
54145;SDS011;65909;49.422;7.738;2023-08-30T09:49:05;8.32;;;5.07;;
54145;SDS011;65909;49.422;7.738;2023-08-30T09:51:31;8.00;;;4.13;;
54145;SDS011;65909;49.422;7.738;2023-08-30T09:53:58;6.50;;;3.78;;
54145;SDS011;65909;49.422;7.738;2023-08-30T09:56:28;7.00;;;4.68;;
54145;SDS011;65909;49.422;7.738;2023-08-30T09:58:55;6.10;;;4.65;;
54145;SDS011;65909;49.422;7.738;2023-08-30T10:01:24;7.35;;;5.03;;
54145;SDS011;65909;49.422;7.738;2023-08-30T10:03:51;5.70;;;4.65;;
54145;SDS011;65909;49.422;7.738;2023-08-30T10:06:18;7.05;;;4.03;;
54145;SDS011;65909;49.422;7.738;2023-08-30T10:08:44;5.35;;;4.65;;
54145;SDS011;65909;49.422;7.738;2023-08-30T10:11:13;6.65;;;4.60;;
54145;SDS011;65909;49.422;7.738;2023-08-30T10:13:39;4.25;;;3.35;;
54145;SDS011;65909;49.422;7.738;2023-08-30T10:16:07;5.05;;;3.92;;
54145;SDS011;65909;49.422;7.738;2023-08-30T10:18:37;6.95;;;4.05;;
54145;SDS011;65909;49.422;7.738;2023-08-30T10:21:05;6.55;;;4.50;;
54145;SDS011;65909;49.422;7.738;2023-08-30T10:23:34;6.45;;;4.38;;
54145;SDS011;65909;49.422;7.738;2023-08-30T10:26:02;5.15;;;3.70;;
54145;SDS011;65909;49.422;7.738;2023-08-30T10:28:30;5.07;;;3.80;;
54145;SDS011;65909;49.422;7.738;2023-08-30T10:30:56;4.15;;;3.60;;
54145;SDS011;65909;49.422;7.738;2023-08-30T10:33:21;7.20;;;4.05;;
54145;SDS011;65909;49.422;7.738;2023-08-30T10:35:50;4.82;;;3.63;;
54145;SDS011;65909;49.422;7.738;2023-08-30T10:38:29;5.35;;;3.85;;
54145;SDS011;65909;49.422;7.738;2023-08-30T10:40:54;4.22;;;3.13;;
54145;SDS011;65909;49.422;7.738;2023-08-30T10:43:30;4.72;;;3.33;;
54145;SDS011;65909;49.422;7.738;2023-08-30T10:46:02;4.03;;;3.00;;
54145;SDS011;65909;49.422;7.738;2023-08-30T10:48:35;4.82;;;2.72;;
54145;SDS011;65909;49.422;7.738;2023-08-30T10:51:01;3.28;;;2.75;;
54145;SDS011;65909;49.422;7.738;2023-08-30T10:53:29;6.22;;;3.78;;
54145;SDS011;65909;49.422;7.738;2023-08-30T10:56:11;3.58;;;2.90;;
54145;SDS011;65909;49.422;7.738;2023-08-30T10:58:42;5.95;;;3.15;;
54145;SDS011;65909;49.422;7.738;2023-08-30T11:01:09;3.67;;;2.53;;
54145;SDS011;65909;49.422;7.738;2023-08-30T11:03:37;3.80;;;2.97;;
54145;SDS011;65909;49.422;7.738;2023-08-30T11:06:02;4.85;;;2.80;;
54145;SDS011;65909;49.422;7.738;2023-08-30T11:08:28;4.28;;;2.40;;
54145;SDS011;65909;49.422;7.738;2023-08-30T11:11:03;4.82;;;2.90;;
54145;SDS011;65909;49.422;7.738;2023-08-30T11:13:31;3.10;;;2.60;;
54145;SDS011;65909;49.422;7.738;2023-08-30T11:16:02;2.47;;;2.28;;
54145;SDS011;65909;49.422;7.738;2023-08-30T11:18:38;3.83;;;2.60;;
54145;SDS011;65909;49.422;7.738;2023-08-30T11:21:04;4.60;;;2.55;;
54145;SDS011;65909;49.422;7.738;2023-08-30T11:23:31;2.85;;;2.33;;
54145;SDS011;65909;49.422;7.738;2023-08-30T11:25:56;4.30;;;2.63;;
54145;SDS011;65909;49.422;7.738;2023-08-30T11:28:22;3.15;;;2.15;;
54145;SDS011;65909;49.422;7.738;2023-08-30T11:30:49;2.55;;;2.33;;
54145;SDS011;65909;49.422;7.738;2023-08-30T11:33:17;2.53;;;2.22;;
54145;SDS011;65909;49.422;7.738;2023-08-30T11:35:43;2.75;;;2.30;;
54145;SDS011;65909;49.422;7.738;2023-08-30T11:38:10;3.65;;;2.95;;
54145;SDS011;65909;49.422;7.738;2023-08-30T11:40:35;3.33;;;2.90;;
54145;SDS011;65909;49.422;7.738;2023-08-30T11:43:02;4.18;;;2.60;;
54145;SDS011;65909;49.422;7.738;2023-08-30T11:45:28;3.95;;;3.00;;
54145;SDS011;65909;49.422;7.738;2023-08-30T11:47:57;3.70;;;2.30;;
54145;SDS011;65909;49.422;7.738;2023-08-30T11:50:24;3.10;;;2.65;;
54145;SDS011;65909;49.422;7.738;2023-08-30T11:52:49;4.30;;;2.67;;
54145;SDS011;65909;49.422;7.738;2023-08-30T11:55:15;2.83;;;2.30;;
54145;SDS011;65909;49.422;7.738;2023-08-30T11:57:43;3.30;;;2.55;;
54145;SDS011;65909;49.422;7.738;2023-08-30T12:00:11;2.90;;;2.33;;
54145;SDS011;65909;49.422;7.738;2023-08-30T12:02:37;2.40;;;1.98;;
54145;SDS011;65909;49.422;7.738;2023-08-30T12:05:04;3.17;;;1.95;;
54145;SDS011;65909;49.422;7.738;2023-08-30T12:07:30;3.03;;;2.30;;
54145;SDS011;65909;49.422;7.738;2023-08-30T12:10:05;5.15;;;2.92;;
54145;SDS011;65909;49.422;7.738;2023-08-30T12:12:31;4.13;;;2.33;;
54145;SDS011;65909;49.422;7.738;2023-08-30T12:14:56;3.40;;;2.60;;
54145;SDS011;65909;49.422;7.738;2023-08-30T12:17:22;3.15;;;2.20;;
54145;SDS011;65909;49.422;7.738;2023-08-30T12:19:57;5.45;;;2.72;;
54145;SDS011;65909;49.422;7.738;2023-08-30T12:22:23;3.55;;;2.20;;
54145;SDS011;65909;49.422;7.738;2023-08-30T12:24:48;4.60;;;2.22;;
54145;SDS011;65909;49.422;7.738;2023-08-30T12:27:14;2.92;;;2.40;;
54145;SDS011;65909;49.422;7.738;2023-08-30T12:29:39;4.13;;;3.05;;
54145;SDS011;65909;49.422;7.738;2023-08-30T12:32:05;3.72;;;2.05;;
54145;SDS011;65909;49.422;7.738;2023-08-30T12:34:31;2.70;;;2.25;;
54145;SDS011;65909;49.422;7.738;2023-08-30T12:36:57;3.13;;;2.38;;
54145;SDS011;65909;49.422;7.738;2023-08-30T12:39:22;2.95;;;2.30;;
54145;SDS011;65909;49.422;7.738;2023-08-30T12:41:48;3.55;;;2.50;;
54145;SDS011;65909;49.422;7.738;2023-08-30T12:44:13;3.13;;;2.30;;
54145;SDS011;65909;49.422;7.738;2023-08-30T12:46:38;3.75;;;2.65;;
54145;SDS011;65909;49.422;7.738;2023-08-30T12:49:04;3.75;;;2.80;;
54145;SDS011;65909;49.422;7.738;2023-08-30T12:51:30;5.40;;;4.15;;
54145;SDS011;65909;49.422;7.738;2023-08-30T12:53:55;3.88;;;2.45;;
54145;SDS011;65909;49.422;7.738;2023-08-30T12:56:21;4.10;;;2.58;;
54145;SDS011;65909;49.422;7.738;2023-08-30T12:58:46;4.60;;;2.42;;
54145;SDS011;65909;49.422;7.738;2023-08-30T13:01:11;2.65;;;2.10;;
54145;SDS011;65909;49.422;7.738;2023-08-30T13:03:37;3.90;;;2.05;;
54145;SDS011;65909;49.422;7.738;2023-08-30T13:06:02;3.78;;;2.20;;
54145;SDS011;65909;49.422;7.738;2023-08-30T13:08:29;7.43;;;2.45;;
54145;SDS011;65909;49.422;7.738;2023-08-30T13:10:54;2.50;;;1.70;;
54145;SDS011;65909;49.422;7.738;2023-08-30T13:13:20;4.07;;;2.30;;
54145;SDS011;65909;49.422;7.738;2023-08-30T13:15:46;3.13;;;2.00;;
54145;SDS011;65909;49.422;7.738;2023-08-30T13:18:13;3.30;;;1.98;;
54145;SDS011;65909;49.422;7.738;2023-08-30T13:20:38;4.60;;;2.70;;
54145;SDS011;65909;49.422;7.738;2023-08-30T13:23:04;7.07;;;2.40;;
54145;SDS011;65909;49.422;7.738;2023-08-30T13:25:29;4.25;;;2.50;;
54145;SDS011;65909;49.422;7.738;2023-08-30T13:27:55;4.13;;;2.20;;
54145;SDS011;65909;49.422;7.738;2023-08-30T13:30:20;4.28;;;2.17;;
54145;SDS011;65909;49.422;7.738;2023-08-30T13:32:46;5.30;;;3.00;;
54145;SDS011;65909;49.422;7.738;2023-08-30T13:35:11;4.38;;;2.63;;
54145;SDS011;65909;49.422;7.738;2023-08-30T13:37:37;4.07;;;2.40;;
54145;SDS011;65909;49.422;7.738;2023-08-30T13:40:02;3.88;;;2.45;;
54145;SDS011;65909;49.422;7.738;2023-08-30T13:42:30;3.10;;;2.45;;
54145;SDS011;65909;49.422;7.738;2023-08-30T13:44:57;3.17;;;2.40;;
54145;SDS011;65909;49.422;7.738;2023-08-30T13:47:22;3.22;;;2.30;;
54145;SDS011;65909;49.422;7.738;2023-08-30T13:49:47;3.97;;;2.33;;
54145;SDS011;65909;49.422;7.738;2023-08-30T13:52:13;4.47;;;2.33;;
54145;SDS011;65909;49.422;7.738;2023-08-30T13:54:38;3.28;;;2.30;;
54145;SDS011;65909;49.422;7.738;2023-08-30T13:57:04;3.67;;;3.00;;
54145;SDS011;65909;49.422;7.738;2023-08-30T13:59:29;4.05;;;2.83;;
54145;SDS011;65909;49.422;7.738;2023-08-30T14:01:55;5.20;;;2.40;;
54145;SDS011;65909;49.422;7.738;2023-08-30T14:04:22;3.78;;;2.40;;
54145;SDS011;65909;49.422;7.738;2023-08-30T14:06:49;3.65;;;2.50;;
54145;SDS011;65909;49.422;7.738;2023-08-30T14:09:14;3.95;;;2.58;;
54145;SDS011;65909;49.422;7.738;2023-08-30T14:11:40;7.65;;;2.53;;
54145;SDS011;65909;49.422;7.738;2023-08-30T14:14:06;3.67;;;2.30;;
54145;SDS011;65909;49.422;7.738;2023-08-30T14:16:32;3.53;;;2.25;;
54145;SDS011;65909;49.422;7.738;2023-08-30T14:18:57;4.18;;;2.35;;
54145;SDS011;65909;49.422;7.738;2023-08-30T14:21:30;5.22;;;2.63;;
54145;SDS011;65909;49.422;7.738;2023-08-30T14:23:55;3.55;;;2.50;;
54145;SDS011;65909;49.422;7.738;2023-08-30T14:26:20;4.72;;;2.83;;
54145;SDS011;65909;49.422;7.738;2023-08-30T14:28:46;4.65;;;2.50;;
54145;SDS011;65909;49.422;7.738;2023-08-30T14:31:11;3.85;;;2.63;;
54145;SDS011;65909;49.422;7.738;2023-08-30T14:33:41;4.13;;;2.30;;
54145;SDS011;65909;49.422;7.738;2023-08-30T14:36:09;7.00;;;2.90;;
54145;SDS011;65909;49.422;7.738;2023-08-30T14:38:35;4.50;;;2.90;;
54145;SDS011;65909;49.422;7.738;2023-08-30T14:41:02;3.97;;;2.65;;
54145;SDS011;65909;49.422;7.738;2023-08-30T14:43:28;6.25;;;2.78;;
54145;SDS011;65909;49.422;7.738;2023-08-30T14:46:03;4.45;;;3.15;;
54145;SDS011;65909;49.422;7.738;2023-08-30T14:48:31;4.40;;;2.47;;